Time;durP1;ratioP1;P1;durP2;ratioP2;P2;SDS_P1;SDS_P2;PMS_P1;PMS_P2;Temp;Humidity;BMP_temperature;BMP_pressure;BME280_temperature;BME280_humidity;BME280_pressure;Samples;Min_cycle;Max_cycle;Signal;HPM_P1;HPM_P2
2022/11/07 00:02:12;;;;;;;15.20;10.27;;;10.20;88.60;;;;;;5015952;28;20206;-74
2022/11/07 00:04:40;;;;;;;17.80;10.50;;;10.20;89.10;;;;;;5016237;28;20207;-78
2022/11/07 00:07:11;;;;;;;17.30;10.90;;;10.20;89.10;;;;;;5016057;28;20238;-73
2022/11/07 00:09:39;;;;;;;21.60;11.53;;;10.20;89.20;;;;;;5016107;28;20207;-78
2022/11/07 00:12:08;;;;;;;17.03;10.97;;;10.30;89.10;;;;;;5016120;28;20200;-75
2022/11/07 00:14:36;;;;;;;17.87;10.77;;;10.30;88.50;;;;;;5016219;28;20204;-79
2022/11/07 00:17:05;;;;;;;17.90;10.53;;;10.30;88.90;;;;;;5015941;28;20196;-77
2022/11/07 00:19:33;;;;;;;18.87;10.07;;;10.20;87.90;;;;;;5015912;28;20283;-78
2022/11/07 00:22:01;;;;;;;19.20;9.40;;;10.20;87.30;;;;;;5014648;28;20211;-80
2022/11/07 00:24:31;;;;;;;15.63;9.33;;;10.20;87.20;;;;;;5015583;28;20204;-78
2022/11/07 00:27:00;;;;;;;17.27;9.37;;;10.20;86.20;;;;;;5015794;28;20312;-78
2022/11/07 00:29:28;;;;;;;17.17;9.70;;;10.20;85.60;;;;;;5015785;28;20203;-78
2022/11/07 00:31:57;;;;;;;12.17;9.30;;;10.20;85.00;;;;;;5016000;28;20201;-77
2022/11/07 00:34:26;;;;;;;15.10;9.23;;;10.20;83.70;;;;;;5015531;28;20207;-77
2022/11/07 00:36:54;;;;;;;15.57;8.40;;;10.20;83.20;;;;;;5014365;28;20653;-79
2022/11/07 00:39:22;;;;;;;10.33;8.97;;;10.10;82.30;;;;;;5015503;28;20211;-79
2022/11/07 00:41:52;;;;;;;12.07;8.23;;;10.20;82.50;;;;;;5015702;28;20200;-74
2022/11/07 00:44:21;;;;;;;15.33;7.93;;;10.20;82.30;;;;;;5015523;28;20204;-77
2022/11/07 00:46:49;;;;;;;10.70;7.93;;;10.20;81.80;;;;;;5015386;28;20685;-79
2022/11/07 00:49:18;;;;;;;12.07;7.93;;;10.20;80.60;;;;;;5015246;28;20201;-80
2022/11/07 00:51:46;;;;;;;13.67;8.50;;;10.20;80.70;;;;;;5015735;28;20202;-79
2022/11/07 00:54:14;;;;;;;14.60;7.17;;;10.30;79.90;;;;;;5025752;28;20236;-77
2022/11/07 00:56:43;;;;;;;13.23;7.60;;;10.20;79.10;;;;;;5020944;28;20206;-79
2022/11/07 00:59:13;;;;;;;9.33;7.60;;;10.20;79.20;;;;;;5015877;28;20191;-73
2022/11/07 01:01:41;;;;;;;12.03;7.17;;;10.20;79.00;;;;;;5016618;28;20195;-72
2022/11/07 01:07:13;;;;;;;14.40;7.50;;;10.20;77.70;;;;;;4973774;28;20232;-78
2022/11/07 01:09:41;;;;;;;7.97;6.30;;;10.20;77.40;;;;;;4973978;28;20194;-77
2022/11/07 01:12:10;;;;;;;9.53;6.30;;;10.20;77.30;;;;;;4974073;28;20289;-80
2022/11/07 01:14:39;;;;;;;7.77;6.50;;;10.20;76.60;;;;;;4958025;28;20300;-74
2022/11/07 01:17:08;;;;;;;10.53;7.03;;;10.10;76.20;;;;;;4973683;28;20281;-80
2022/11/07 01:19:36;;;;;;;11.60;6.73;;;10.10;76.30;;;;;;4973581;28;20668;-81
2022/11/07 01:22:05;;;;;;;13.67;6.77;;;10.10;75.30;;;;;;4973741;28;20251;-72
2022/11/07 01:24:34;;;;;;;14.17;7.40;;;10.00;74.90;;;;;;4973530;28;20210;-72
2022/11/07 01:27:02;;;;;;;8.50;6.67;;;10.10;75.40;;;;;;4973626;28;20745;-72
2022/11/07 01:29:31;;;;;;;11.63;6.63;;;10.00;75.60;;;;;;4973393;28;20201;-77
2022/11/07 01:32:01;;;;;;;12.50;7.07;;;10.00;76.50;;;;;;4973553;28;20213;-73
2022/11/07 01:34:30;;;;;;;10.53;6.70;;;10.00;77.60;;;;;;4973347;28;20193;-73
2022/11/07 01:36:58;;;;;;;14.93;8.47;;;10.10;78.30;;;;;;4973505;28;20200;-72
2022/11/07 01:39:26;;;;;;;8.87;6.90;;;10.10;78.80;;;;;;5014465;28;20212;-71
2022/11/07 01:41:54;;;;;;;13.00;7.63;;;10.10;79.70;;;;;;5014353;28;20298;-71
2022/11/07 01:44:52;;;;;;;14.93;8.27;;;10.10;81.10;;;;;;5014287;28;20200;-72
2022/11/07 01:47:23;;;;;;;13.60;7.97;;;10.10;82.50;;;;;;5014323;28;20216;-79
2022/11/07 01:49:52;;;;;;;12.00;8.77;;;10.20;83.20;;;;;;5014165;28;20274;-81
2022/11/07 01:52:24;;;;;;;12.17;9.33;;;10.20;84.60;;;;;;5021673;22;20423;-80
2022/11/07 01:54:58;;;;;;;15.37;9.27;;;10.20;85.50;;;;;;5014248;28;20199;-82
2022/11/07 01:57:31;;;;;;;12.17;8.57;;;10.20;86.10;;;;;;5014092;28;20202;-81
2022/11/07 02:00:01;;;;;;;11.90;8.53;;;10.20;86.80;;;;;;5013104;28;20210;-81
2022/11/07 02:02:34;;;;;;;15.10;8.37;;;10.30;87.10;;;;;;5014133;28;20226;-80
2022/11/07 02:05:07;;;;;;;13.77;9.00;;;10.40;87.30;;;;;;5013788;28;20548;-81
2022/11/07 02:07:37;;;;;;;18.27;9.33;;;10.30;88.10;;;;;;5013853;28;20216;-81
2022/11/07 02:10:06;;;;;;;13.83;10.00;;;10.30;89.00;;;;;;5011904;28;20210;-80
2022/11/07 02:12:35;;;;;;;15.63;9.27;;;10.40;89.30;;;;;;5013995;28;20712;-78
2022/11/07 02:15:04;;;;;;;13.73;9.33;;;10.50;89.50;;;;;;5013929;28;20207;-80
2022/11/07 02:17:35;;;;;;;15.33;9.30;;;10.40;89.80;;;;;;5013880;28;20662;-81
2022/11/07 02:20:04;;;;;;;17.30;11.07;;;10.50;90.40;;;;;;5013640;28;20284;-82
2022/11/07 02:22:39;;;;;;;17.57;9.80;;;10.50;90.20;;;;;;5013901;28;20199;-80
2022/11/07 02:25:11;;;;;;;13.97;9.50;;;10.50;90.30;;;;;;5014200;28;20198;-78
2022/11/07 02:27:41;;;;;;;16.33;9.47;;;10.60;90.40;;;;;;5013537;28;20767;-81
2022/11/07 02:30:11;;;;;;;15.40;9.90;;;10.60;90.50;;;;;;5013677;28;20199;-81
2022/11/07 02:32:40;;;;;;;18.20;10.10;;;10.60;90.60;;;;;;5013699;28;20216;-80
2022/11/07 02:35:36;;;;;;;23.87;11.23;;;10.50;90.70;;;;;;5013600;28;20249;-80
2022/11/07 02:38:09;;;;;;;17.67;11.03;;;10.60;90.90;;;;;;5013453;28;20689;-81
2022/11/07 02:40:39;;;;;;;19.43;11.20;;;10.50;91.00;;;;;;5013554;28;20727;-79
2022/11/07 02:43:11;;;;;;;18.57;11.20;;;10.60;91.10;;;;;;5013384;28;20279;-77
2022/11/07 02:45:44;;;;;;;17.03;11.10;;;10.60;91.10;;;;;;5013454;28;20286;-81
2022/11/07 02:48:13;;;;;;;20.07;11.80;;;10.60;91.20;;;;;;5013088;28;20257;-81
2022/11/07 02:50:41;;;;;;;20.40;11.33;;;10.70;91.10;;;;;;5013238;28;20228;-81
2022/11/07 02:53:10;;;;;;;22.47;11.80;;;10.60;91.10;;;;;;5012078;28;20680;-81
2022/11/07 02:55:40;;;;;;;19.43;11.00;;;10.60;91.40;;;;;;5013245;28;20632;-78
2022/11/07 02:58:09;;;;;;;18.37;11.50;;;10.60;91.60;;;;;;5013174;28;20207;-81
2022/11/07 03:00:37;;;;;;;19.33;12.50;;;10.50;91.90;;;;;;5013183;28;20221;-81
2022/11/07 03:03:06;;;;;;;19.93;11.97;;;10.60;92.10;;;;;;5013330;28;20597;-81
2022/11/07 03:05:34;;;;;;;22.73;12.00;;;10.60;92.10;;;;;;5013169;28;20199;-81
2022/11/07 03:08:02;;;;;;;19.33;12.33;;;10.50;92.50;;;;;;5013288;28;20218;-77
2022/11/07 03:10:31;;;;;;;19.27;13.17;;;10.40;92.90;;;;;;5013201;28;20659;-81
2022/11/07 03:13:01;;;;;;;24.53;13.03;;;10.40;93.30;;;;;;5013162;28;20196;-81
2022/11/07 03:15:30;;;;;;;24.00;12.90;;;10.50;93.00;;;;;;5013134;28;20199;-82
2022/11/07 03:17:59;;;;;;;21.40;12.17;;;10.50;93.00;;;;;;5013261;28;20199;-79
2022/11/07 03:20:29;;;;;;;22.03;12.93;;;10.50;93.10;;;;;;4952455;28;20737;-80
2022/11/07 03:22:57;;;;;;;23.47;13.00;;;10.60;93.00;;;;;;4955392;28;20205;-81
2022/11/07 03:25:26;;;;;;;23.90;12.57;;;10.60;93.00;;;;;;4956503;29;20214;-80
2022/11/07 03:27:54;;;;;;;17.60;12.73;;;10.50;93.10;;;;;;4956421;28;20295;-81
2022/11/07 03:30:24;;;;;;;22.67;13.70;;;10.60;93.20;;;;;;4956651;29;20200;-81
2022/11/07 03:32:54;;;;;;;20.97;13.73;;;10.50;93.20;;;;;;4956277;28;20673;-82
2022/11/07 03:35:23;;;;;;;20.53;13.13;;;10.60;93.30;;;;;;4956329;28;20302;-79
2022/11/07 03:37:51;;;;;;;25.83;13.00;;;10.50;93.50;;;;;;4966402;28;20213;-79
2022/11/07 03:40:19;;;;;;;25.23;12.87;;;10.50;93.70;;;;;;5016563;28;20210;-81
2022/11/07 03:42:48;;;;;;;26.70;14.70;;;10.50;93.80;;;;;;5016892;28;20225;-82
2022/11/07 03:45:17;;;;;;;24.27;14.87;;;10.50;93.90;;;;;;5016686;28;20204;-82
2022/11/07 03:47:47;;;;;;;26.93;13.00;;;10.50;93.70;;;;;;5048462;28;20219;-80
2022/11/07 03:50:17;;;;;;;29.80;14.70;;;10.50;93.70;;;;;;5016189;28;20210;-82
2022/11/07 03:52:46;;;;;;;23.83;12.73;;;10.50;93.60;;;;;;5015359;28;20379;-81
2022/11/07 03:55:16;;;;;;;23.73;13.03;;;10.50;93.60;;;;;;5016720;28;20207;-78
2022/11/07 03:57:46;;;;;;;18.80;13.23;;;10.50;93.60;;;;;;5016452;28;20652;-81
2022/11/07 04:00:16;;;;;;;23.20;14.23;;;10.50;93.40;;;;;;5016429;28;20226;-81
2022/11/07 04:02:46;;;;;;;25.17;15.10;;;10.50;93.30;;;;;;5016383;28;20276;-82
2022/11/07 04:05:15;;;;;;;22.93;13.80;;;10.60;93.30;;;;;;5048122;28;20201;-83
2022/11/07 04:07:43;;;;;;;27.00;17.40;;;10.50;93.20;;;;;;5016447;28;20191;-81
2022/11/07 04:10:12;;;;;;;21.17;13.83;;;10.50;93.50;;;;;;5016089;28;20535;-80
2022/11/07 04:18:13;;;;;;;20.80;13.27;;;10.50;93.40;;;;;;5020435;28;20222;-80
2022/11/07 04:20:42;;;;;;;18.77;12.57;;;10.40;93.40;;;;;;5017111;28;20204;-82
2022/11/07 04:23:10;;;;;;;24.03;13.67;;;10.40;93.60;;;;;;5016191;28;20207;-82
2022/11/07 04:28:25;;;;;;;18.10;13.17;;;10.40;93.50;;;;;;5021071;28;20729;-82
2022/11/07 04:30:53;;;;;;;22.23;12.80;;;10.30;93.60;;;;;;5019999;28;20216;-82
2022/11/07 04:33:23;;;;;;;21.97;13.00;;;10.40;93.70;;;;;;5015750;28;20200;-73
2022/11/07 04:35:51;;;;;;;21.47;13.90;;;10.40;93.60;;;;;;5015737;28;20206;-81
2022/11/07 04:38:19;;;;;;;18.07;12.57;;;10.50;93.30;;;;;;5014649;28;20273;-80
2022/11/07 04:40:54;;;;;;;21.27;13.30;;;10.40;93.40;;;;;;5017010;28;20187;-74
2022/11/07 04:43:23;;;;;;;21.70;13.53;;;10.50;93.30;;;;;;5015919;28;20606;-81
2022/11/07 04:45:51;;;;;;;19.13;12.60;;;10.40;93.30;;;;;;5015768;28;20201;-75
2022/11/07 04:48:21;;;;;;;22.80;14.37;;;10.40;93.30;;;;;;5015448;28;20212;-81
2022/11/07 04:50:53;;;;;;;22.13;12.90;;;10.40;93.50;;;;;;5013990;28;20235;-78
2022/11/07 04:53:21;;;;;;;20.43;13.20;;;10.40;93.50;;;;;;5015216;28;20193;-71
2022/11/07 04:55:54;;;;;;;23.30;13.20;;;10.40;93.50;;;;;;5016203;28;20295;-77
2022/11/07 04:58:22;;;;;;;19.63;12.93;;;10.40;93.50;;;;;;5018126;28;20199;-72
2022/11/07 05:00:51;;;;;;;18.67;12.60;;;10.40;93.70;;;;;;5018210;28;20195;-73
2022/11/07 05:03:20;;;;;;;21.37;13.33;;;10.40;93.60;;;;;;5015256;28;20204;-79
2022/11/07 05:05:50;;;;;;;20.23;13.27;;;10.50;93.40;;;;;;5015090;28;20193;-73
2022/11/07 05:08:18;;;;;;;21.03;14.17;;;10.50;93.10;;;;;;5015196;28;20200;-82
2022/11/07 05:10:46;;;;;;;20.20;13.37;;;10.60;92.90;;;;;;5015559;28;20230;-80
2022/11/07 05:13:14;;;;;;;21.03;13.30;;;10.60;92.80;;;;;;5015207;28;20204;-81
2022/11/07 05:15:43;;;;;;;21.83;13.47;;;10.50;92.80;;;;;;5014959;28;20210;-82
2022/11/07 05:18:12;;;;;;;20.87;14.33;;;10.60;92.90;;;;;;5015010;28;20194;-80
2022/11/07 05:20:40;;;;;;;23.70;14.80;;;10.60;92.70;;;;;;5013407;28;20580;-78
2022/11/07 05:23:13;;;;;;;22.97;15.33;;;10.60;92.50;;;;;;5013541;28;20207;-74
2022/11/07 05:25:44;;;;;;;21.17;14.30;;;10.60;92.60;;;;;;5014807;28;20231;-71
2022/11/07 05:28:14;;;;;;;23.70;16.27;;;10.60;92.50;;;;;;5014418;28;20707;-80
2022/11/07 05:30:44;;;;;;;25.27;15.30;;;10.50;92.30;;;;;;5014755;28;20231;-79
2022/11/07 05:33:14;;;;;;;23.47;16.00;;;10.50;92.60;;;;;;5014498;28;20204;-70
2022/11/07 05:35:45;;;;;;;25.80;15.77;;;10.40;92.70;;;;;;5014646;28;20199;-71
2022/11/07 05:38:15;;;;;;;20.40;14.30;;;10.40;92.70;;;;;;5014653;28;20405;-78
2022/11/07 05:40:44;;;;;;;22.00;15.63;;;10.40;92.70;;;;;;5014482;28;20199;-70
2022/11/07 05:43:14;;;;;;;24.87;15.30;;;10.30;92.90;;;;;;5013375;28;20203;-79
2022/11/07 05:45:43;;;;;;;28.90;15.97;;;10.30;93.10;;;;;;5014443;28;20232;-72
2022/11/07 05:48:13;;;;;;;25.13;16.77;;;10.30;93.00;;;;;;5014798;28;20267;-72
2022/11/07 05:50:42;;;;;;;26.63;18.00;;;10.30;93.00;;;;;;5013846;28;20613;-79
2022/11/07 05:53:10;;;;;;;26.63;17.20;;;10.30;93.00;;;;;;5014243;28;20187;-79
2022/11/07 05:55:41;;;;;;;26.17;16.60;;;10.30;93.10;;;;;;5014422;28;20251;-69
2022/11/07 05:58:10;;;;;;;28.30;16.90;;;10.20;93.20;;;;;;5014284;28;20213;-71
2022/11/07 06:00:40;;;;;;;26.93;17.97;;;10.20;93.40;;;;;;5014378;28;20199;-69
2022/11/07 06:03:09;;;;;;;27.07;18.20;;;10.20;93.40;;;;;;5014371;28;20224;-70
2022/11/07 06:05:38;;;;;;;27.17;16.73;;;10.10;93.40;;;;;;5014289;28;20286;-71
2022/11/07 06:08:11;;;;;;;23.60;17.17;;;10.10;93.70;;;;;;5015086;28;20211;-74
2022/11/07 06:10:43;;;;;;;26.90;18.00;;;10.00;94.30;;;;;;5015061;28;20223;-72
2022/11/07 06:13:13;;;;;;;27.53;17.10;;;10.00;94.00;;;;;;5015526;28;20227;-79
2022/11/07 06:15:43;;;;;;;28.47;17.97;;;10.00;94.10;;;;;;5014637;28;20193;-81
2022/11/07 06:18:14;;;;;;;24.53;17.67;;;10.00;94.30;;;;;;5013020;28;20239;-80
2022/11/07 06:20:42;;;;;;;31.57;17.77;;;10.00;94.30;;;;;;5013986;28;20650;-72
2022/11/07 06:23:11;;;;;;;29.73;18.17;;;10.00;94.30;;;;;;5013912;28;20304;-74
2022/11/07 06:25:41;;;;;;;33.13;19.37;;;10.00;94.30;;;;;;5013752;28;20670;-81
2022/11/07 06:28:11;;;;;;;27.27;19.17;;;9.90;94.40;;;;;;5014045;28;20183;-75
2022/11/07 06:30:39;;;;;;;30.33;19.30;;;9.90;94.50;;;;;;5013715;28;20218;-69
2022/11/07 06:33:11;;;;;;;29.67;20.07;;;9.80;94.80;;;;;;5013886;28;20783;-70
2022/11/07 06:35:39;;;;;;;36.77;19.93;;;9.80;95.10;;;;;;5013685;28;20690;-70
2022/11/07 06:38:10;;;;;;;31.97;21.30;;;9.90;95.00;;;;;;5012572;28;20200;-74
2022/11/07 06:40:39;;;;;;;34.63;20.67;;;9.90;95.00;;;;;;5013703;28;20199;-69
2022/11/07 06:43:10;;;;;;;30.50;19.90;;;10.00;94.90;;;;;;5013504;28;20199;-74
2022/11/07 06:45:39;;;;;;;32.90;21.20;;;10.00;94.60;;;;;;5013772;28;20278;-78
2022/11/07 06:48:08;;;;;;;31.87;21.10;;;9.90;94.50;;;;;;5013501;28;20712;-76
2022/11/07 06:50:36;;;;;;;35.07;21.17;;;9.90;94.70;;;;;;5012925;28;20647;-84
2022/11/07 06:53:06;;;;;;;32.13;20.73;;;9.90;94.70;;;;;;5013311;28;20243;-73
2022/11/07 06:55:35;;;;;;;33.80;21.53;;;9.90;94.60;;;;;;5013248;28;20194;-73
2022/11/07 06:58:04;;;;;;;34.73;23.13;;;9.90;94.50;;;;;;5012992;28;20211;-71
2022/11/07 07:00:35;;;;;;;33.50;21.90;;;9.80;94.70;;;;;;5013223;28;20203;-70
2022/11/07 07:03:04;;;;;;;32.60;21.97;;;9.80;94.90;;;;;;5013207;28;20285;-77
2022/11/07 07:05:33;;;;;;;33.30;21.00;;;9.90;94.90;;;;;;5011344;28;20214;-77
2022/11/07 07:08:02;;;;;;;29.57;21.03;;;9.90;94.60;;;;;;5013495;28;20203;-77
2022/11/07 07:10:30;;;;;;;31.73;20.57;;;9.90;94.60;;;;;;5013156;28;20223;-73
2022/11/07 07:13:00;;;;;;;36.37;21.67;;;9.80;94.80;;;;;;5013335;28;20195;-76
2022/11/07 07:15:29;;;;;;;35.27;22.87;;;9.90;94.60;;;;;;5013305;28;20192;-75
2022/11/07 07:18:10;;;;;;;37.50;21.50;;;9.80;94.30;;;;;;5013075;28;20191;-78
2022/11/07 07:20:39;;;;;;;30.20;20.63;;;9.70;94.70;;;;;;5012841;28;20279;-75
2022/11/07 07:23:07;;;;;;;32.43;21.97;;;9.80;95.00;;;;;;5013083;28;20211;-76
2022/11/07 07:25:35;;;;;;;31.87;20.87;;;9.80;94.80;;;;;;5013113;28;20574;-79
2022/11/07 07:28:04;;;;;;;33.40;21.60;;;9.80;94.90;;;;;;5012850;28;20202;-70
2022/11/07 07:30:32;;;;;;;32.63;21.03;;;9.90;94.70;;;;;;5012813;28;20227;-80
2022/11/07 07:33:01;;;;;;;34.93;21.40;;;9.90;94.00;;;;;;5012562;28;20566;-82
2022/11/07 07:35:30;;;;;;;31.43;19.77;;;9.90;94.20;;;;;;5012677;28;20596;-80
2022/11/07 07:37:58;;;;;;;31.73;20.07;;;10.10;94.20;;;;;;5012919;28;20210;-80
2022/11/07 07:40:27;;;;;;;31.80;20.50;;;10.00;93.50;;;;;;5012680;28;20192;-74
2022/11/07 07:42:55;;;;;;;31.17;20.27;;;10.10;93.50;;;;;;5012779;28;20180;-76
2022/11/07 07:45:24;;;;;;;36.77;22.93;;;10.10;93.30;;;;;;5012748;28;20196;-80
2022/11/07 07:47:52;;;;;;;30.13;20.40;;;10.10;93.50;;;;;;5012584;28;20769;-73
2022/11/07 07:50:20;;;;;;;31.87;21.27;;;10.20;93.30;;;;;;5012087;28;20226;-73
2022/11/07 07:52:56;;;;;;;35.60;21.87;;;10.20;93.20;;;;;;5019276;28;20196;-69
2022/11/07 07:55:24;;;;;;;33.67;21.47;;;10.20;93.40;;;;;;5019118;28;20200;-77
2022/11/07 07:57:53;;;;;;;72.57;41.70;;;10.10;93.40;;;;;;5014115;28;20230;-67
2022/11/07 08:00:21;;;;;;;59.50;36.27;;;10.20;93.90;;;;;;5013326;28;20222;-78
2022/11/07 08:02:49;;;;;;;57.73;33.10;;;10.20;94.10;;;;;;5013431;28;20195;-73
2022/11/07 08:05:18;;;;;;;47.00;27.27;;;10.20;94.10;;;;;;5013990;28;20199;-72
2022/11/07 08:07:48;;;;;;;33.43;21.80;;;10.30;94.10;;;;;;5014731;28;20195;-82
2022/11/07 08:10:19;;;;;;;32.33;21.37;;;10.30;93.50;;;;;;5016597;28;20298;-78
2022/11/07 08:13:08;;;;;;;43.83;26.13;;;10.30;93.30;;;;;;5016101;28;20567;-76
2022/11/07 08:15:36;;;;;;;33.47;22.70;;;10.30;93.60;;;;;;5016309;28;20203;-79
2022/11/07 08:18:05;;;;;;;29.57;20.00;;;10.40;93.60;;;;;;5018897;28;20296;-80
2022/11/07 08:20:33;;;;;;;36.40;21.17;;;10.40;93.20;;;;;;5018363;28;20199;-83
2022/11/07 08:23:03;;;;;;;38.67;25.37;;;10.50;93.20;;;;;;5003880;28;20235;-87
2022/11/07 08:25:32;;;;;;;37.30;22.90;;;10.50;93.30;;;;;;5018045;28;20559;-82
2022/11/07 08:28:02;;;;;;;34.17;22.97;;;10.70;93.50;;;;;;5020856;28;20201;-73
2022/11/07 08:30:31;;;;;;;33.83;22.63;;;10.70;92.40;;;;;;5004693;28;20225;-80
2022/11/07 08:33:00;;;;;;;37.03;21.70;;;10.80;92.70;;;;;;5003073;28;20574;-80
2022/11/07 08:35:29;;;;;;;35.27;21.27;;;10.80;91.60;;;;;;4997864;28;20691;-68
2022/11/07 08:37:58;;;;;;;31.80;22.47;;;10.80;91.60;;;;;;4997269;28;20232;-71
2022/11/07 08:40:27;;;;;;;41.83;22.93;;;10.80;91.40;;;;;;5000352;28;20257;-74
2022/11/07 08:43:00;;;;;;;34.00;22.40;;;10.70;91.50;;;;;;5000529;28;20196;-71
2022/11/07 08:45:29;;;;;;;32.70;21.93;;;10.70;91.70;;;;;;4944650;28;20245;-85
2022/11/07 08:47:58;;;;;;;38.97;22.27;;;10.80;91.70;;;;;;4956810;29;20314;-80
2022/11/07 08:50:27;;;;;;;34.77;22.03;;;10.80;91.70;;;;;;4954566;28;20229;-82
2022/11/07 08:52:55;;;;;;;34.80;22.37;;;10.90;91.30;;;;;;4957162;29;20214;-81
2022/11/07 08:55:29;;;;;;;34.87;22.63;;;10.90;90.80;;;;;;4957677;29;20208;-76
2022/11/07 08:58:00;;;;;;;33.50;21.30;;;10.90;90.80;;;;;;4952052;28;20237;-82
2022/11/07 09:00:29;;;;;;;32.63;21.13;;;11.00;91.00;;;;;;4944302;29;20221;-83
2022/11/07 09:03:01;;;;;;;33.97;21.20;;;11.00;90.80;;;;;;4947593;28;20196;-84
2022/11/07 09:05:51;;;;;;;33.37;21.87;;;11.10;90.50;;;;;;4995675;28;20254;-84
2022/11/07 09:08:19;;;;;;;37.20;22.33;;;11.20;90.30;;;;;;5001667;28;20193;-78
2022/11/07 09:10:48;;;;;;;30.27;19.33;;;11.30;89.70;;;;;;5014938;28;20215;-73
2022/11/07 09:13:19;;;;;;;33.27;21.50;;;11.30;87.80;;;;;;5014841;28;20627;-69
2022/11/07 09:15:48;;;;;;;34.53;21.50;;;11.30;88.80;;;;;;5014207;28;20203;-69
2022/11/07 09:18:19;;;;;;;35.13;21.57;;;11.20;88.80;;;;;;5014906;28;20280;-72
2022/11/07 09:20:47;;;;;;;31.83;22.03;;;11.10;89.70;;;;;;5014316;28;20208;-73
2022/11/07 09:23:16;;;;;;;31.17;20.60;;;11.20;89.90;;;;;;5014227;28;20215;-78
2022/11/07 09:25:45;;;;;;;32.80;21.57;;;11.20;90.20;;;;;;5014283;28;20193;-71
2022/11/07 09:28:13;;;;;;;28.97;20.23;;;11.20;90.10;;;;;;5014659;28;20205;-68
2022/11/07 09:30:43;;;;;;;33.90;21.40;;;11.30;90.00;;;;;;5014325;28;20212;-68
2022/11/07 09:33:12;;;;;;;32.03;20.73;;;11.40;89.70;;;;;;5014457;28;20195;-74
2022/11/07 09:35:40;;;;;;;33.07;19.43;;;11.60;89.40;;;;;;5046067;28;20658;-70
2022/11/07 09:38:08;;;;;;;36.60;21.97;;;11.80;87.80;;;;;;5011863;28;20259;-69
2022/11/07 09:40:44;;;;;;;36.67;21.43;;;12.00;87.40;;;;;;5045373;28;20221;-68
2022/11/07 09:43:38;;;;;;;30.63;20.13;;;12.20;84.50;;;;;;5014316;28;20194;-76
2022/11/07 09:46:21;;;;;;;30.53;19.50;;;12.40;83.00;;;;;;5014044;28;20726;-75
2022/11/07 09:48:55;;;;;;;33.20;19.87;;;12.80;82.20;;;;;;5014070;28;20206;-67
2022/11/07 09:51:32;;;;;;;28.40;17.93;;;13.00;79.20;;;;;;5012834;28;20246;-83
2022/11/07 09:54:06;;;;;;;27.27;19.10;;;13.30;77.60;;;;;;5014889;28;20193;-74
2022/11/07 09:56:34;;;;;;;25.27;18.33;;;13.30;76.20;;;;;;5012885;28;20202;-86
2022/11/07 09:59:07;;;;;;;25.40;17.97;;;13.30;74.40;;;;;;5012852;28;20208;-69
2022/11/07 10:01:42;;;;;;;29.03;19.23;;;13.20;74.50;;;;;;5002991;28;20688;-74
2022/11/07 10:04:15;;;;;;;28.23;19.00;;;13.20;74.50;;;;;;4996421;28;20203;-79
2022/11/07 10:06:57;;;;;;;27.20;18.33;;;13.30;74.50;;;;;;5003499;28;20253;-76
2022/11/07 10:09:34;;;;;;;28.50;19.20;;;13.30;73.70;;;;;;5014179;28;20203;-68
2022/11/07 10:12:16;;;;;;;27.67;17.50;;;13.30;73.80;;;;;;5014202;28;20219;-68
2022/11/07 10:14:56;;;;;;;26.10;19.40;;;13.50;73.80;;;;;;4999518;28;20206;-68
2022/11/07 10:17:36;;;;;;;24.73;18.27;;;13.50;73.10;;;;;;4994129;28;20621;-81
2022/11/07 10:20:13;;;;;;;28.73;18.70;;;13.60;73.50;;;;;;5021080;28;20191;-74
2022/11/07 10:22:52;;;;;;;26.47;18.73;;;13.70;72.60;;;;;;5002853;28;20276;-67
2022/11/07 10:25:28;;;;;;;25.77;19.57;;;13.90;72.10;;;;;;5014381;28;20208;-68
2022/11/07 10:28:12;;;;;;;26.47;18.70;;;14.10;70.80;;;;;;5033399;28;20210;-79
2022/11/07 10:30:42;;;;;;;24.93;18.23;;;14.10;69.90;;;;;;5033182;28;20624;-72
2022/11/07 10:33:33;;;;;;;24.43;17.10;;;13.90;70.00;;;;;;5033464;28;20212;-76
2022/11/07 10:36:05;;;;;;;24.33;17.90;;;13.70;71.00;;;;;;5032271;28;20203;-81
2022/11/07 10:38:35;;;;;;;26.07;17.27;;;13.80;71.80;;;;;;5032760;28;20252;-81
2022/11/07 10:41:03;;;;;;;27.33;16.80;;;13.70;71.90;;;;;;5012910;28;20234;-77
2022/11/07 10:43:36;;;;;;;25.63;16.53;;;13.60;72.20;;;;;;5012008;28;20209;-76
2022/11/07 10:46:10;;;;;;;24.63;15.77;;;13.60;73.00;;;;;;5013071;28;20198;-69
2022/11/07 10:48:50;;;;;;;22.10;16.00;;;13.60;73.10;;;;;;5013064;28;20209;-83
2022/11/07 10:51:19;;;;;;;25.00;15.63;;;13.60;73.20;;;;;;5011496;28;20227;-73
2022/11/07 10:53:49;;;;;;;22.07;16.40;;;13.50;73.80;;;;;;5011414;28;20680;-68
2022/11/07 10:56:19;;;;;;;19.23;15.13;;;13.50;74.80;;;;;;5006205;28;20214;-81
2022/11/07 10:58:47;;;;;;;21.83;15.43;;;13.50;75.10;;;;;;5024409;28;20664;-72
2022/11/07 11:01:24;;;;;;;22.13;14.83;;;13.50;75.00;;;;;;5003717;28;20204;-68
2022/11/07 11:03:54;;;;;;;20.67;15.67;;;13.40;75.10;;;;;;5032291;28;20205;-83
2022/11/07 11:06:30;;;;;;;21.00;14.20;;;13.30;75.80;;;;;;5032126;28;20209;-73
2022/11/07 11:08:59;;;;;;;21.67;14.33;;;13.30;76.20;;;;;;5032391;28;20690;-77
2022/11/07 11:11:32;;;;;;;19.17;13.97;;;13.10;77.00;;;;;;5032751;28;20233;-77
2022/11/07 11:14:03;;;;;;;21.40;14.40;;;13.00;77.70;;;;;;5033046;28;20219;-67
2022/11/07 11:16:34;;;;;;;23.80;16.67;;;13.00;78.30;;;;;;5032710;28;20687;-77
2022/11/07 11:19:05;;;;;;;20.50;13.47;;;13.00;79.00;;;;;;5032487;28;20213;-73
2022/11/07 11:21:41;;;;;;;19.00;13.33;;;13.00;79.10;;;;;;5032913;28;20300;-74
2022/11/07 11:24:17;;;;;;;19.13;12.87;;;13.20;79.60;;;;;;5040164;28;20197;-70
2022/11/07 11:26:49;;;;;;;21.73;13.87;;;13.30;79.40;;;;;;5019834;28;20712;-71
2022/11/07 11:29:27;;;;;;;20.03;13.93;;;13.50;78.30;;;;;;5013419;28;20276;-72
2022/11/07 11:31:58;;;;;;;19.23;13.70;;;13.60;77.10;;;;;;5012461;28;20218;-83
2022/11/07 11:34:48;;;;;;;18.70;13.30;;;13.70;75.80;;;;;;5012772;28;20223;-77
2022/11/07 11:37:20;;;;;;;19.07;12.53;;;13.60;75.60;;;;;;5012928;28;20211;-69
2022/11/07 11:39:56;;;;;;;17.07;12.83;;;13.70;76.00;;;;;;4992979;28;20214;-75
2022/11/07 11:42:32;;;;;;;17.70;11.37;;;13.70;76.10;;;;;;5003166;28;20195;-72
2022/11/07 11:45:10;;;;;;;15.43;11.37;;;13.60;75.10;;;;;;5017030;28;20292;-76
2022/11/07 11:47:44;;;;;;;18.83;12.27;;;13.60;75.20;;;;;;5016519;28;20300;-72
2022/11/07 11:50:19;;;;;;;18.57;12.20;;;13.70;75.20;;;;;;5016035;28;20236;-69
2022/11/07 11:52:47;;;;;;;16.17;11.80;;;13.60;75.30;;;;;;5016307;28;20223;-69
2022/11/07 11:55:19;;;;;;;15.00;10.90;;;13.60;75.80;;;;;;5016142;28;20194;-70
2022/11/07 11:57:55;;;;;;;17.77;11.50;;;13.70;76.00;;;;;;5016367;28;20561;-72
2022/11/07 12:00:25;;;;;;;17.13;10.93;;;13.90;75.70;;;;;;5014783;28;20203;-70
2022/11/07 12:03:16;;;;;;;15.00;11.40;;;14.10;74.20;;;;;;5016162;28;20572;-75
2022/11/07 12:06:25;;;;;;;16.23;11.27;;;14.20;73.60;;;;;;5016210;28;20195;-71
2022/11/07 12:09:25;;;;;;;17.43;12.47;;;14.40;73.30;;;;;;5015257;28;20194;-76
2022/11/07 12:12:06;;;;;;;17.53;10.77;;;14.50;72.00;;;;;;5016108;28;20190;-81
2022/11/07 12:15:00;;;;;;;15.10;9.90;;;14.50;71.40;;;;;;5016140;28;20571;-74
2022/11/07 12:17:37;;;;;;;18.10;12.07;;;14.60;71.40;;;;;;5007981;28;20294;-75
2022/11/07 12:20:18;;;;;;;13.67;10.37;;;14.60;70.90;;;;;;5013995;28;20565;-70
2022/11/07 12:23:16;;;;;;;14.00;10.43;;;14.70;71.00;;;;;;5015562;28;20566;-73
2022/11/07 12:25:53;;;;;;;12.33;9.87;;;14.70;70.60;;;;;;5015337;28;20274;-81
2022/11/07 12:28:46;;;;;;;15.47;11.00;;;14.50;70.40;;;;;;5002153;28;20204;-72
2022/11/07 12:31:31;;;;;;;15.23;10.60;;;14.30;71.60;;;;;;4995903;28;20196;-76
2022/11/07 12:34:13;;;;;;;15.07;10.00;;;14.30;72.30;;;;;;4995787;28;20775;-79
2022/11/07 12:36:57;;;;;;;13.77;9.20;;;14.40;72.40;;;;;;4995949;28;20199;-73
2022/11/07 12:39:38;;;;;;;13.57;9.73;;;14.50;72.30;;;;;;5008781;28;20232;-68
2022/11/07 12:42:11;;;;;;;18.07;10.30;;;14.50;72.00;;;;;;5017039;28;20190;-72
2022/11/07 12:44:51;;;;;;;15.80;10.37;;;14.50;72.00;;;;;;5047650;28;20230;-77
2022/11/07 12:47:39;;;;;;;11.90;9.17;;;14.40;72.10;;;;;;5008505;28;20203;-68
2022/11/07 12:50:23;;;;;;;13.40;8.70;;;14.30;72.50;;;;;;5004409;28;20662;-76
2022/11/07 12:53:08;;;;;;;15.73;9.37;;;14.30;73.20;;;;;;5027139;28;20231;-72
2022/11/07 12:55:44;;;;;;;13.87;9.53;;;14.30;73.20;;;;;;4994525;28;20286;-69
2022/11/07 12:58:16;;;;;;;17.03;8.87;;;14.20;73.60;;;;;;4995340;28;20258;-68
2022/11/07 13:00:46;;;;;;;13.50;9.20;;;14.20;74.10;;;;;;5000802;28;20289;-69
2022/11/07 13:03:42;;;;;;;15.37;10.47;;;14.20;74.10;;;;;;5015385;28;20198;-80
2022/11/07 13:06:17;;;;;;;13.17;9.17;;;14.20;74.60;;;;;;5015183;28;20195;-69